Time;durP1;ratioP1;P1;durP2;ratioP2;P2;SDS_P1;SDS_P2;PMS_P1;PMS_P2;Temp;Humidity;BMP_temperature;BMP_pressure;BME280_temperature;BME280_humidity;BME280_pressure;Samples;Min_cycle;Max_cycle;Signal;HPM_P1;HPM_P2
2021/09/29 00:02:18;;;;;;;9.50;8.70;;;11.50;99.90;;;10.64;100.00;98216.44;4966144;28;20491;-78
2021/09/29 00:04:45;;;;;;;9.50;8.70;;;11.70;99.90;;;10.73;100.00;98226.00;4991323;28;20491;-78
2021/09/29 00:07:12;;;;;;;9.80;9.00;;;11.80;99.90;;;11.01;99.98;98213.22;4986650;28;20547;-78
2021/09/29 00:09:39;;;;;;;10.30;8.63;;;12.00;99.60;;;11.02;99.36;98212.19;4974524;28;20510;-78
2021/09/29 00:12:07;;;;;;;8.90;8.20;;;12.10;98.10;;;10.97;99.83;98218.22;4981794;28;20464;-78
2021/09/29 00:14:35;;;;;;;8.47;7.67;;;12.10;97.80;;;10.96;99.79;98221.97;4971020;28;20550;-78
2021/09/29 00:17:02;;;;;;;8.60;7.80;;;12.10;98.00;;;10.98;99.18;98219.88;4988929;28;20480;-78
2021/09/29 00:19:29;;;;;;;8.50;7.43;;;12.10;97.50;;;11.07;99.30;98219.66;4996710;28;20531;-77
2021/09/29 00:21:56;;;;;;;9.33;8.50;;;12.10;97.60;;;11.01;99.56;98205.97;4970008;28;20854;-78
2021/09/29 00:24:23;;;;;;;8.60;7.73;;;12.20;97.20;;;10.99;99.71;98216.13;4983784;28;20579;-78
2021/09/29 00:26:57;;;;;;;8.47;7.70;;;12.10;97.70;;;10.97;99.82;98198.50;4989897;28;20468;-78
2021/09/29 00:29:24;;;;;;;9.50;8.70;;;12.10;98.10;;;10.98;99.62;98189.34;4987457;28;20871;-78
2021/09/29 00:31:53;;;;;;;8.63;7.83;;;12.20;98.10;;;11.11;98.89;98196.53;4986393;28;20562;-78
2021/09/29 00:34:28;;;;;;;8.60;7.83;;;12.20;96.70;;;11.18;98.46;98183.84;4986331;28;20491;-78
2021/09/29 00:36:56;;;;;;;8.37;7.57;;;12.30;96.70;;;11.12;99.08;98181.97;4988210;28;20999;-78
2021/09/29 00:39:23;;;;;;;7.40;6.70;;;12.30;96.60;;;11.50;96.29;98183.88;4998811;28;20893;-79
2021/09/29 00:41:51;;;;;;;7.50;6.90;;;12.50;95.10;;;11.26;96.95;98178.16;4981770;28;20464;-79
2021/09/29 00:44:19;;;;;;;7.80;7.10;;;12.40;94.90;;;11.57;95.62;98164.91;4986614;28;20483;-78
2021/09/29 00:46:46;;;;;;;7.13;6.57;;;12.50;94.20;;;11.26;96.95;98167.34;4986446;28;20467;-78
2021/09/29 00:49:14;;;;;;;7.60;6.97;;;12.40;94.80;;;11.25;97.39;98159.47;4989485;28;20563;-78
2021/09/29 00:51:43;;;;;;;8.47;7.67;;;12.30;95.30;;;11.09;98.68;98153.53;4988526;28;20575;-77
2021/09/29 00:54:13;;;;;;;7.83;6.40;;;12.20;96.90;;;11.31;97.59;98142.38;4982363;28;20834;-78
2021/09/29 00:56:40;;;;;;;7.80;7.00;;;12.30;95.80;;;11.22;97.53;98143.66;4988227;28;20509;-78
2021/09/29 00:59:07;;;;;;;8.20;7.50;;;12.30;96.10;;;11.11;97.71;98137.06;4990377;28;20491;-77
2021/09/29 01:01:34;;;;;;;7.60;6.90;;;12.30;95.90;;;11.17;97.52;98147.84;4972057;28;20487;-77
2021/09/29 01:04:02;;;;;;;8.63;7.87;;;12.30;95.70;;;11.14;99.05;98139.31;4988391;28;20467;-77
2021/09/29 01:06:37;;;;;;;7.90;7.20;;;12.20;96.90;;;11.17;97.76;98136.22;4996337;28;21002;-78
2021/09/29 01:09:18;;;;;;;8.47;7.77;;;12.30;96.10;;;10.99;98.64;98129.63;4972619;28;20964;-78
2021/09/29 01:11:58;;;;;;;7.37;6.77;;;12.20;95.90;;;11.27;97.27;98128.44;4971357;28;20446;-78
2021/09/29 01:14:33;;;;;;;7.77;7.17;;;12.30;95.90;;;10.99;98.24;98128.81;4988458;28;20767;-78
2021/09/29 01:17:03;;;;;;;9.53;6.77;;;12.20;95.40;;;10.97;98.71;98125.50;4975833;28;21058;-77
2021/09/29 01:19:52;;;;;;;8.77;7.97;;;12.10;97.20;;;10.94;99.17;98123.22;4990303;28;20456;-77
2021/09/29 01:22:39;;;;;;;8.07;7.30;;;12.00;97.50;;;11.19;98.14;98131.41;4987129;28;20831;-77
2021/09/29 01:25:10;;;;;;;9.00;8.20;;;12.20;97.40;;;11.23;97.95;98124.53;4987736;28;20559;-78
2021/09/29 01:27:41;;;;;;;7.30;6.60;;;12.30;96.20;;;11.33;97.06;98127.59;4989454;28;20992;-77
2021/09/29 01:30:10;;;;;;;8.67;7.60;;;12.30;95.90;;;11.32;97.30;98107.00;4989829;28;20556;-77
2021/09/29 01:32:38;;;;;;;8.37;7.57;;;12.40;95.50;;;11.46;96.58;98115.03;4966005;28;20452;-77
2021/09/29 01:35:06;;;;;;;8.50;7.80;;;12.40;95.60;;;11.55;95.73;98116.41;4998135;28;20505;-77
2021/09/29 01:37:34;;;;;;;7.90;7.30;;;12.50;94.70;;;11.30;96.47;98125.31;4986586;28;20476;-79
2021/09/29 01:40:02;;;;;;;8.83;7.93;;;12.50;94.60;;;11.37;96.45;98129.84;4989223;28;20472;-77
2021/09/29 01:42:29;;;;;;;8.57;7.90;;;12.40;95.10;;;11.43;96.17;98129.81;4964922;28;20478;-78
2021/09/29 01:44:58;;;;;;;9.87;8.87;;;12.50;94.70;;;11.39;97.15;98122.34;4986350;28;20475;-77
2021/09/29 01:47:25;;;;;;;10.07;9.23;;;12.50;94.80;;;11.36;96.62;98118.19;4989136;28;20957;-78
2021/09/29 01:50:00;;;;;;;10.20;9.40;;;12.50;95.20;;;11.26;97.94;98124.06;4980261;28;20957;-79
2021/09/29 01:52:29;;;;;;;10.37;9.20;;;12.40;95.30;;;11.45;96.77;98121.50;4983545;28;20964;-78
2021/09/29 01:54:57;;;;;;;9.03;8.33;;;12.50;95.50;;;11.41;96.84;98109.44;4987205;28;21029;-79
2021/09/29 01:57:25;;;;;;;9.77;8.87;;;12.50;95.60;;;11.36;97.44;98139.00;4985809;28;20465;-77
2021/09/29 01:59:52;;;;;;;8.40;7.60;;;12.50;95.40;;;11.16;98.06;98131.84;4972158;28;20491;-77
2021/09/29 02:02:21;;;;;;;8.80;8.10;;;12.30;95.70;;;11.28;98.42;98132.00;4986507;28;21047;-77
2021/09/29 02:04:50;;;;;;;8.23;7.63;;;12.40;96.30;;;11.28;97.81;98135.50;4967711;28;21042;-77
2021/09/29 02:07:17;;;;;;;7.73;7.03;;;12.40;96.10;;;11.42;96.79;98141.69;4982654;28;20471;-77
2021/09/29 02:09:44;;;;;;;8.47;7.67;;;12.50;95.30;;;11.44;96.94;98141.44;4987223;28;20474;-77
2021/09/29 02:12:12;;;;;;;8.73;7.83;;;12.50;95.30;;;11.33;97.51;98151.09;4993978;28;20502;-76
2021/09/29 02:14:39;;;;;;;8.60;7.80;;;12.50;95.10;;;11.44;97.49;98146.84;4968262;28;20940;-77
2021/09/29 02:17:06;;;;;;;9.73;8.60;;;12.50;95.90;;;11.58;96.10;98143.00;4990184;28;20489;-77
2021/09/29 02:19:35;;;;;;;8.93;7.97;;;12.60;94.80;;;11.64;95.74;98145.91;4961494;28;20679;-77
2021/09/29 02:22:02;;;;;;;8.87;8.10;;;12.60;94.60;;;11.51;96.04;98163.88;4986055;28;20967;-77
2021/09/29 02:24:29;;;;;;;8.47;7.80;;;12.60;94.30;;;11.58;96.65;98164.66;4985255;28;20563;-75
2021/09/29 02:26:56;;;;;;;10.07;7.93;;;12.50;95.30;;;11.42;96.55;98162.47;4978017;28;20451;-77
2021/09/29 02:29:23;;;;;;;9.70;8.90;;;12.60;94.60;;;11.48;96.78;98162.44;4986658;28;20511;-78
2021/09/29 02:31:50;;;;;;;10.57;9.50;;;12.50;94.80;;;11.47;96.17;98168.91;4989826;28;20484;-78
2021/09/29 02:34:17;;;;;;;9.73;8.83;;;12.60;94.60;;;11.60;96.27;98176.13;4981140;28;20819;-77
2021/09/29 02:36:45;;;;;;;9.87;9.00;;;12.60;94.80;;;11.58;96.32;98180.91;4996805;28;20493;-77
2021/09/29 02:39:12;;;;;;;10.00;9.10;;;12.60;94.70;;;11.62;95.85;98182.16;4985906;28;20491;-77
2021/09/29 02:41:39;;;;;;;9.40;8.50;;;12.70;94.60;;;11.60;95.97;98173.41;4987768;28;20452;-77
2021/09/29 02:44:08;;;;;;;10.53;9.43;;;12.70;94.60;;;11.65;95.76;98180.03;4985776;28;20486;-77
2021/09/29 02:46:36;;;;;;;9.63;8.83;;;12.70;94.40;;;11.48;96.61;98180.56;4996465;28;20467;-77
2021/09/29 02:49:04;;;;;;;10.03;9.10;;;12.60;94.70;;;11.38;96.74;98180.19;4988827;28;20875;-80
2021/09/29 02:51:31;;;;;;;11.10;10.00;;;12.50;95.00;;;11.32;97.06;98177.31;4993103;28;20495;-80
2021/09/29 02:54:00;;;;;;;10.70;9.30;;;12.50;95.10;;;11.32;97.65;98180.03;4964643;28;20549;-79
2021/09/29 02:56:27;;;;;;;10.20;9.30;;;12.40;95.80;;;11.57;96.60;98176.53;4987683;28;20558;-78
2021/09/29 02:58:54;;;;;;;10.30;9.43;;;12.60;95.70;;;11.46;97.35;98175.38;4988034;28;20460;-78
2021/09/29 03:01:22;;;;;;;10.73;9.73;;;12.60;95.30;;;11.46;96.36;98166.44;4962584;28;20544;-78
2021/09/29 03:03:48;;;;;;;10.57;9.47;;;12.50;95.00;;;11.62;96.27;98157.78;4988835;28;21011;-78
2021/09/29 03:06:16;;;;;;;9.60;8.80;;;12.60;94.90;;;11.60;95.14;98165.31;4990386;28;20503;-80
2021/09/29 03:08:43;;;;;;;10.50;9.60;;;12.70;93.80;;;11.43;97.24;98159.56;4989921;28;20547;-75
2021/09/29 03:11:11;;;;;;;10.70;9.70;;;12.60;95.00;;;11.42;98.15;98152.50;4983318;28;20484;-76
2021/09/29 03:13:39;;;;;;;11.43;10.33;;;12.50;96.20;;;11.46;97.54;98128.56;4995880;28;20463;-77
2021/09/29 03:16:06;;;;;;;12.07;10.83;;;12.60;95.70;;;11.52;96.96;98124.97;4970523;28;20571;-78
2021/09/29 03:18:33;;;;;;;12.03;10.90;;;12.50;95.40;;;11.49;97.19;98117.28;4992298;28;20465;-77
2021/09/29 03:21:00;;;;;;;12.07;10.80;;;12.60;96.20;;;11.40;98.87;98114.03;4985042;28;20964;-76
2021/09/29 03:23:27;;;;;;;11.43;10.43;;;12.50;97.10;;;11.44;98.47;98119.81;4981442;28;20983;-76
2021/09/29 03:25:54;;;;;;;12.20;11.10;;;12.60;97.00;;;11.36;99.34;98110.06;4982476;28;20479;-77
2021/09/29 03:28:22;;;;;;;12.77;11.57;;;12.50;98.50;;;11.39;99.58;98116.94;4975916;28;20447;-76
2021/09/29 03:30:49;;;;;;;10.87;9.80;;;12.50;98.40;;;11.48;100.00;98118.34;4984477;28;20456;-77
2021/09/29 03:33:16;;;;;;;11.00;10.00;;;12.50;99.90;;;11.37;100.00;98119.84;5000668;28;20554;-77
2021/09/29 03:35:44;;;;;;;13.00;11.73;;;12.50;99.90;;;11.26;100.00;98129.50;4988781;28;20511;-77
2021/09/29 03:38:11;;;;;;;11.67;10.00;;;12.40;99.90;;;11.33;100.00;98141.13;4997308;28;21079;-77
2021/09/29 03:40:39;;;;;;;11.70;10.60;;;12.40;99.90;;;11.30;100.00;98140.72;4965838;28;20979;-77
2021/09/29 03:43:06;;;;;;;12.53;11.43;;;12.40;99.90;;;11.31;100.00;98154.03;4972032;28;20447;-77
2021/09/29 03:45:35;;;;;;;11.97;10.67;;;12.40;99.90;;;11.36;100.00;98160.66;4986261;28;20479;-77
2021/09/29 03:48:02;;;;;;;12.23;11.13;;;12.40;99.90;;;11.31;100.00;98164.00;5000695;28;20480;-77
2021/09/29 03:50:30;;;;;;;12.33;11.13;;;12.40;99.90;;;11.31;100.00;98158.59;4985993;28;21003;-77
2021/09/29 03:52:57;;;;;;;12.17;11.03;;;12.40;99.90;;;11.42;100.00;98165.19;4997490;28;20825;-77
2021/09/29 03:55:24;;;;;;;12.27;11.07;;;12.50;99.90;;;11.34;100.00;98161.69;4990614;28;20570;-78
2021/09/29 03:57:51;;;;;;;12.10;10.90;;;12.50;99.90;;;11.29;100.00;98160.69;4993949;28;20866;-77
2021/09/29 04:00:19;;;;;;;12.00;11.00;;;12.40;99.90;;;11.37;100.00;98156.91;4989567;28;20495;-77
2021/09/29 04:02:47;;;;;;;13.43;12.13;;;12.50;99.90;;;11.26;100.00;98150.31;4987169;28;20923;-77
2021/09/29 04:05:14;;;;;;;11.40;10.43;;;12.40;99.90;;;11.46;100.00;98140.19;4997015;28;21010;-77
2021/09/29 04:07:42;;;;;;;12.93;11.10;;;12.50;99.90;;;11.37;100.00;98151.50;4987927;28;20458;-77
2021/09/29 04:10:10;;;;;;;12.83;11.63;;;12.40;99.90;;;11.22;100.00;98140.94;4992909;28;20834;-79
2021/09/29 04:12:41;;;;;;;12.30;11.30;;;12.30;99.90;;;11.43;100.00;98129.81;4988437;28;20824;-78
2021/09/29 04:15:10;;;;;;;12.70;11.60;;;12.50;99.90;;;11.51;100.00;98126.00;5004093;28;20573;-78
2021/09/29 04:17:37;;;;;;;11.50;10.47;;;12.50;99.90;;;11.42;100.00;98121.91;4982569;28;20578;-78
2021/09/29 04:20:08;;;;;;;12.67;11.57;;;12.50;99.90;;;11.34;100.00;98126.53;4989513;28;20447;-77
2021/09/29 04:22:36;;;;;;;13.13;11.83;;;12.40;99.90;;;11.37;100.00;98127.97;4983727;28;20510;-77
2021/09/29 04:25:04;;;;;;;14.33;13.00;;;12.50;99.90;;;11.37;100.00;98124.44;4997090;28;20514;-79
2021/09/29 04:27:31;;;;;;;12.73;11.50;;;12.50;99.90;;;11.33;100.00;98130.28;4984415;28;20542;-79
2021/09/29 04:29:58;;;;;;;12.87;11.77;;;12.40;99.90;;;11.17;100.00;98130.81;4998689;28;20531;-79
2021/09/29 04:32:25;;;;;;;13.37;12.10;;;12.30;99.90;;;11.11;100.00;98132.50;4982198;28;20461;-79
2021/09/29 04:34:52;;;;;;;13.20;11.90;;;12.20;99.90;;;11.16;100.00;98135.38;4992723;28;20486;-78
2021/09/29 04:37:20;;;;;;;14.30;12.90;;;12.20;99.90;;;11.20;100.00;98142.00;4988912;28;20480;-77
2021/09/29 04:39:47;;;;;;;13.30;11.90;;;12.30;99.90;;;11.38;100.00;98143.16;4996149;28;20509;-77
2021/09/29 04:42:14;;;;;;;12.93;11.60;;;12.40;99.90;;;11.57;100.00;98149.47;4986241;28;20471;-77
2021/09/29 04:44:41;;;;;;;12.50;11.30;;;12.60;99.90;;;11.49;100.00;98155.16;4979556;28;20558;-77
2021/09/29 04:47:09;;;;;;;12.90;11.60;;;12.60;99.90;;;11.51;100.00;98153.06;4988137;28;20488;-77
2021/09/29 04:49:35;;;;;;;13.33;12.03;;;12.60;99.90;;;11.67;100.00;98148.16;4990441;28;20695;-77
2021/09/29 04:52:03;;;;;;;16.13;12.97;;;12.70;99.90;;;11.90;100.00;98156.53;4987131;28;20976;-77
2021/09/29 04:54:31;;;;;;;14.07;12.77;;;12.80;99.90;;;12.00;99.62;98160.63;4992122;28;20487;-78
2021/09/29 04:56:58;;;;;;;13.57;12.20;;;13.00;99.30;;;12.02;99.19;98159.38;4980962;28;20635;-77
2021/09/29 04:59:25;;;;;;;12.83;11.63;;;13.00;98.50;;;12.02;99.47;98153.13;4990344;28;21104;-77
2021/09/29 05:01:54;;;;;;;12.60;11.50;;;13.10;98.50;;;11.90;99.46;98145.72;4985176;28;20468;-78
2021/09/29 05:04:23;;;;;;;13.77;11.73;;;13.00;97.40;;;12.07;99.85;98150.59;4975135;28;20830;-77
2021/09/29 05:06:51;;;;;;;14.10;12.70;;;13.10;98.70;;;11.98;99.22;98162.72;4985768;28;20560;-76
2021/09/29 05:09:18;;;;;;;12.90;11.63;;;13.10;97.70;;;11.86;98.55;98149.88;4988069;28;20468;-76
2021/09/29 05:11:50;;;;;;;14.23;12.30;;;13.00;96.80;;;11.83;99.58;98150.34;4980238;28;20543;-77
2021/09/29 05:14:18;;;;;;;12.70;11.40;;;12.90;97.80;;;12.03;98.94;98160.19;4965827;28;20598;-76
2021/09/29 05:16:47;;;;;;;12.37;11.07;;;13.00;97.90;;;11.93;98.34;98162.56;4983767;28;20552;-76
2021/09/29 05:19:14;;;;;;;13.60;12.43;;;13.00;96.20;;;12.09;97.60;98170.16;4985858;28;20510;-75
2021/09/29 05:21:41;;;;;;;12.10;11.00;;;13.10;96.60;;;11.94;97.95;98156.91;4989790;28;20983;-75
2021/09/29 05:24:08;;;;;;;12.97;11.63;;;13.00;96.00;;;11.93;97.51;98170.69;4987151;28;21015;-76
2021/09/29 05:26:35;;;;;;;12.00;10.80;;;13.00;95.70;;;11.86;98.00;98171.53;4969158;28;20459;-77
2021/09/29 05:29:06;;;;;;;12.33;11.30;;;13.00;96.10;;;12.00;97.85;98175.00;4988185;28;20491;-79
2021/09/29 05:31:33;;;;;;;13.87;12.67;;;13.00;96.70;;;11.88;97.49;98166.75;4987017;28;20529;-77
2021/09/29 05:34:00;;;;;;;12.60;11.37;;;13.00;95.60;;;11.86;97.05;98171.53;4970757;28;20507;-77
2021/09/29 05:36:27;;;;;;;14.03;12.67;;;13.00;95.30;;;11.66;97.83;98170.88;4982905;28;20457;-78
2021/09/29 05:38:55;;;;;;;13.53;12.23;;;12.80;95.50;;;11.54;97.94;98168.84;4981606;28;21003;-78
2021/09/29 05:41:22;;;;;;;12.60;11.50;;;12.80;95.40;;;11.90;97.63;98177.38;4987442;28;20464;-78
2021/09/29 05:43:49;;;;;;;14.20;12.40;;;12.80;96.70;;;11.83;95.90;98177.41;4984713;28;20467;-79
2021/09/29 05:46:17;;;;;;;13.10;11.83;;;12.90;94.30;;;12.16;96.31;98176.34;4977089;28;24089;-78
2021/09/29 05:48:44;;;;;;;14.30;13.00;;;13.10;95.60;;;11.79;95.55;98176.19;4987793;28;20457;-78
2021/09/29 05:51:11;;;;;;;15.23;12.90;;;13.00;93.50;;;11.85;96.13;98186.13;4977905;28;20460;-78
2021/09/29 05:53:38;;;;;;;15.00;13.60;;;13.00;94.00;;;11.94;95.71;98177.75;4981907;28;20473;-76
2021/09/29 05:56:07;;;;;;;15.17;13.20;;;13.10;94.10;;;12.18;94.78;98174.22;4976568;28;21067;-76
2021/09/29 05:58:34;;;;;;;14.40;12.90;;;13.20;93.60;;;12.21;93.89;98180.25;4986887;28;20480;-77
2021/09/29 06:01:01;;;;;;;15.00;13.47;;;13.20;92.80;;;12.10;94.26;98193.47;4989786;28;20815;-78
2021/09/29 06:03:29;;;;;;;15.87;14.10;;;13.10;92.80;;;12.02;94.44;98185.63;4964684;28;20473;-78
2021/09/29 06:05:56;;;;;;;14.80;13.27;;;13.10;92.90;;;11.99;94.76;98191.44;4988907;28;20475;-78
2021/09/29 06:08:23;;;;;;;15.70;14.27;;;13.10;92.90;;;12.01;94.44;98189.34;4985392;28;20522;-79
2021/09/29 06:10:50;;;;;;;14.43;13.03;;;13.10;92.90;;;12.18;94.64;98189.66;4986949;28;20487;-77
2021/09/29 06:13:17;;;;;;;14.70;13.10;;;13.10;93.80;;;12.11;93.59;98176.19;4980199;28;20456;-77
2021/09/29 06:15:46;;;;;;;14.40;12.33;;;13.20;92.70;;;12.26;93.48;98188.56;4971636;28;20536;-81
2021/09/29 06:18:14;;;;;;;16.23;14.63;;;13.20;92.80;;;12.12;94.37;98185.13;4992897;28;20486;-81
2021/09/29 06:20:46;;;;;;;16.97;14.83;;;13.20;92.80;;;12.07;94.24;98191.22;4963438;28;20495;-81
2021/09/29 06:23:15;;;;;;;14.87;13.57;;;13.20;92.90;;;12.09;94.35;98191.81;4984426;28;20455;-76
2021/09/29 06:25:42;;;;;;;17.20;15.40;;;13.20;92.90;;;12.06;94.87;98189.56;4981539;28;20484;-79
2021/09/29 06:28:09;;;;;;;15.53;14.03;;;13.20;93.10;;;12.16;94.06;98183.66;4981313;28;20555;-72
2021/09/29 06:30:37;;;;;;;15.00;13.60;;;13.20;92.70;;;12.47;93.41;98188.13;4975525;28;20464;-70
2021/09/29 06:33:04;;;;;;;14.83;13.40;;;13.40;92.80;;;12.68;91.65;98194.19;4977285;28;20512;-74
2021/09/29 06:35:43;;;;;;;15.10;13.80;;;13.60;91.90;;;12.84;90.79;98197.38;4984385;28;20959;-72
2021/09/29 06:38:14;;;;;;;19.03;14.03;;;13.70;91.20;;;12.70;91.26;98185.81;4987947;28;20526;-73
2021/09/29 06:40:41;;;;;;;14.97;13.57;;;13.80;91.00;;;13.00;90.96;98190.50;4975647;28;20543;-71
2021/09/29 06:43:08;;;;;;;16.37;14.53;;;13.90;90.90;;;13.43;88.41;98199.56;4965119;28;20832;-73
2021/09/29 06:45:36;;;;;;;16.17;14.57;;;14.20;90.00;;;13.53;85.84;98208.00;4981613;28;20486;-72
2021/09/29 06:48:03;;;;;;;15.27;13.73;;;14.50;87.40;;;13.36;86.86;98210.50;4981162;28;21177;-73
2021/09/29 06:50:30;;;;;;;16.83;13.27;;;14.40;87.00;;;13.21;87.84;98216.31;4985843;28;20473;-72
2021/09/29 06:52:58;;;;;;;15.77;14.37;;;14.30;87.30;;;12.99;88.73;98211.38;4987174;28;20548;-72
2021/09/29 06:55:26;;;;;;;16.13;13.60;;;14.20;87.60;;;13.09;88.47;98204.56;4989081;28;20554;-72
2021/09/29 06:57:53;;;;;;;16.30;14.70;;;14.20;88.30;;;13.03;88.64;98215.28;4984848;28;20981;-71
2021/09/29 07:00:21;;;;;;;15.10;13.70;;;14.10;88.00;;;13.24;88.18;98215.84;4982162;28;21046;-71
2021/09/29 07:02:48;;;;;;;16.87;14.77;;;14.20;88.30;;;13.52;86.13;98210.97;4965981;28;20515;-71
2021/09/29 07:05:18;;;;;;;13.97;12.67;;;14.40;86.70;;;13.79;84.42;98227.69;4963623;28;20568;-71
2021/09/29 07:07:45;;;;;;;18.63;13.83;;;14.60;85.70;;;13.58;84.65;98234.47;4980936;28;20451;-71
2021/09/29 07:10:14;;;;;;;14.97;12.33;;;14.70;84.90;;;13.73;83.44;98223.19;4963732;28;20559;-71
2021/09/29 07:12:43;;;;;;;14.00;12.60;;;14.70;84.30;;;13.86;82.21;98222.97;4985873;28;20487;-71
2021/09/29 07:15:12;;;;;;;14.60;12.40;;;14.90;83.10;;;14.09;81.26;98236.84;4982808;28;20488;-73
2021/09/29 07:17:40;;;;;;;11.73;10.50;;;15.00;81.90;;;14.26;80.27;98234.28;4985494;28;20452;-70
2021/09/29 07:20:10;;;;;;;15.80;11.30;;;15.20;81.60;;;14.36;77.92;98240.00;4985473;28;20463;-72
2021/09/29 07:22:38;;;;;;;9.70;8.77;;;15.30;78.70;;;14.41;78.05;98231.94;4989440;28;21294;-71
2021/09/29 07:25:06;;;;;;;11.80;10.53;;;15.40;78.70;;;14.45;76.71;98237.75;4990892;28;20810;-71
2021/09/29 07:27:33;;;;;;;10.40;9.40;;;15.40;77.30;;;14.58;76.77;98242.13;4990677;28;21036;-70
2021/09/29 07:30:01;;;;;;;9.30;8.43;;;15.50;77.10;;;14.72;75.53;98254.44;4967245;28;20444;-72
2021/09/29 07:32:28;;;;;;;8.60;7.73;;;15.70;76.00;;;14.58;75.62;98255.72;4986933;28;20567;-71
2021/09/29 07:34:55;;;;;;;12.00;9.33;;;15.60;75.90;;;14.31;76.52;98258.88;4988557;28;20484;-71
2021/09/29 07:37:22;;;;;;;9.30;8.50;;;15.50;75.40;;;14.61;75.15;98254.41;4966899;28;20480;-71
2021/09/29 07:39:50;;;;;;;8.43;7.70;;;15.50;75.20;;;14.72;74.56;98253.63;4967183;28;21023;-71
2021/09/29 07:42:18;;;;;;;9.40;8.50;;;15.70;74.90;;;14.65;74.52;98245.56;4986542;28;20479;-70
2021/09/29 07:44:45;;;;;;;12.47;8.90;;;15.70;74.60;;;14.62;74.20;98259.59;4985998;28;20475;-70
2021/09/29 07:47:13;;;;;;;11.90;7.63;;;15.70;73.90;;;14.49;75.35;98254.44;4988329;28;20466;-70
2021/09/29 07:49:40;;;;;;;8.27;7.57;;;15.60;74.30;;;14.06;76.61;98254.47;4986111;28;20456;-71
2021/09/29 07:52:08;;;;;;;8.37;7.67;;;15.30;74.60;;;14.28;74.93;98262.06;4986801;28;20924;-71
2021/09/29 07:54:35;;;;;;;7.20;6.23;;;15.30;74.10;;;14.11;74.43;98254.59;4986725;28;21050;-71
2021/09/29 07:57:02;;;;;;;7.03;6.43;;;15.20;73.20;;;14.09;74.23;98264.03;4986539;28;20878;-71
2021/09/29 07:59:29;;;;;;;7.77;6.97;;;15.10;73.10;;;14.19;75.71;98260.75;4988818;28;20507;-71
2021/09/29 08:01:56;;;;;;;9.13;7.30;;;15.20;74.00;;;14.21;75.12;98256.72;4986327;28;20487;-72
2021/09/29 08:04:25;;;;;;;7.70;6.70;;;15.30;73.80;;;14.36;73.13;98248.16;4984579;28;20508;-72
2021/09/29 08:06:52;;;;;;;7.23;5.93;;;15.40;72.50;;;14.90;71.13;98271.69;4983900;28;20464;-72
2021/09/29 08:09:19;;;;;;;8.03;7.20;;;15.70;72.00;;;14.74;71.63;98256.94;4986077;28;20531;-74
2021/09/29 08:11:46;;;;;;;10.03;6.70;;;15.70;71.40;;;14.79;71.66;98270.66;4986845;28;20464;-72
2021/09/29 08:14:13;;;;;;;8.13;7.07;;;15.80;71.50;;;14.94;69.15;98280.22;4988736;28;20476;-72
2021/09/29 08:16:40;;;;;;;9.10;6.70;;;15.90;69.40;;;15.06;69.27;98280.19;4979663;28;20867;-71
2021/09/29 08:19:07;;;;;;;10.80;5.30;;;16.00;69.20;;;15.40;67.33;98281.22;4968377;28;20473;-71
2021/09/29 08:21:36;;;;;;;5.20;4.50;;;16.20;68.20;;;15.51;67.23;98284.16;4983511;28;20538;-72
2021/09/29 08:24:08;;;;;;;7.67;5.57;;;16.40;67.90;;;15.35;67.33;98283.00;4980640;28;20568;-72
2021/09/29 08:26:51;;;;;;;7.50;4.80;;;16.40;67.50;;;15.68;66.12;98293.22;4982508;28;20461;-71
2021/09/29 08:29:44;;;;;;;5.10;4.67;;;16.60;67.00;;;15.39;66.25;98289.59;4984072;28;20546;-70
2021/09/29 08:32:19;;;;;;;6.10;4.47;;;16.40;66.20;;;15.62;66.13;98293.34;4962934;28;20458;-70
2021/09/29 08:34:52;;;;;;;6.30;5.27;;;16.50;66.10;;;15.87;64.33;98284.84;4984828;28;20475;-71
2021/09/29 08:37:34;;;;;;;5.30;4.03;;;16.80;65.50;;;15.78;63.95;98287.13;4984681;28;20488;-70
2021/09/29 08:40:19;;;;;;;4.60;4.20;;;16.80;64.80;;;15.85;64.47;98293.28;4984968;28;21197;-71
2021/09/29 08:43:01;;;;;;;5.40;4.37;;;16.80;64.70;;;15.92;64.04;98293.16;4983116;28;20452;-70
2021/09/29 08:45:33;;;;;;;6.23;5.50;;;17.00;64.60;;;16.10;63.98;98292.13;4984446;28;20582;-71
2021/09/29 08:48:09;;;;;;;4.50;3.97;;;17.00;64.70;;;15.97;63.95;98290.53;4994250;28;20466;-71
2021/09/29 08:50:59;;;;;;;5.70;4.20;;;17.00;64.00;;;16.06;63.52;98290.13;4985218;28;20555;-70
2021/09/29 08:56:50;;;;;;;5.50;3.20;;;17.10;64.20;;;16.42;62.45;98275.22;4921770;29;20886;-71
2021/09/29 09:16:00;;;;;;;2.87;2.47;;;17.20;63.30;;;16.51;61.15;98267.44;4966994;28;20473;-70
2021/09/29 09:18:27;;;;;;;2.63;2.20;;;17.40;62.30;;;16.70;59.92;98276.19;4972846;28;20559;-71
2021/09/29 09:21:01;;;;;;;8.63;4.03;;;17.50;61.60;;;16.57;60.63;98276.53;4985942;28;20555;-70
2021/09/29 09:23:36;;;;;;;3.87;2.63;;;17.60;61.50;;;16.63;60.67;98259.19;4998460;28;20514;-71
2021/09/29 09:26:17;;;;;;;4.00;3.70;;;17.60;61.60;;;16.54;60.90;98263.41;4986508;28;20479;-72
2021/09/29 09:28:46;;;;;;;3.77;2.93;;;17.50;61.50;;;16.76;60.75;98268.91;4974023;28;20456;-72
2021/09/29 09:31:15;;;;;;;3.20;2.50;;;17.70;61.70;;;16.68;60.24;98269.34;4987869;28;20452;-72
2021/09/29 09:33:51;;;;;;;3.50;2.20;;;17.60;61.00;;;16.66;59.07;98266.88;4985644;28;20961;-72
2021/09/29 09:36:30;;;;;;;2.20;2.00;;;17.60;60.10;;;17.06;57.68;98266.91;4984666;28;20459;-72
2021/09/29 09:38:59;;;;;;;3.77;2.20;;;17.80;59.50;;;17.41;57.25;98271.19;4991410;28;20506;-72
2021/09/29 09:41:28;;;;;;;3.07;1.80;;;18.20;59.70;;;17.26;55.68;98267.19;4982798;28;20472;-72
2021/09/29 09:43:56;;;;;;;4.80;2.10;;;18.20;58.20;;;17.46;55.36;98271.25;4972234;28;20466;-72
2021/09/29 09:46:24;;;;;;;1.50;1.40;;;18.30;57.90;;;17.49;54.52;98261.72;4988698;28;20547;-72
2021/09/29 09:49:05;;;;;;;2.70;2.07;;;18.40;57.40;;;17.46;53.98;98265.78;4967487;28;20462;-71
2021/09/29 09:51:34;;;;;;;2.17;1.90;;;18.40;57.00;;;17.59;54.68;98267.34;4986818;28;20464;-72
2021/09/29 09:54:01;;;;;;;4.40;1.70;;;18.50;57.40;;;17.58;55.39;98267.56;4988026;28;20463;-72
2021/09/29 09:56:32;;;;;;;2.30;1.70;;;18.50;57.70;;;17.34;55.00;98265.09;4973665;28;20457;-73
2021/09/29 09:58:59;;;;;;;3.27;1.93;;;18.40;57.30;;;17.41;55.92;98263.81;4986741;28;20464;-73
2021/09/29 10:01:30;;;;;;;6.27;2.20;;;18.30;57.80;;;18.01;54.35;98257.66;4986828;28;20931;-72
2021/09/29 10:04:09;;;;;;;1.70;1.60;;;18.70;57.60;;;18.12;52.63;98256.72;4987407;28;20488;-73
2021/09/29 10:06:36;;;;;;;3.70;2.23;;;19.00;56.70;;;18.06;51.84;98267.84;4998658;28;20446;-72
2021/09/29 10:09:09;;;;;;;5.30;2.17;;;19.00;55.60;;;17.93;52.77;98258.94;4972963;28;20534;-73
2021/09/29 10:11:50;;;;;;;4.30;1.90;;;19.00;55.90;;;18.09;51.47;98251.72;4984258;28;20472;-71
2021/09/29 10:14:38;;;;;;;4.23;1.97;;;19.00;55.40;;;18.20;51.31;98249.09;4992397;28;20507;-72
2021/09/29 10:22:54;;;;;;;4.60;1.90;;;19.30;53.90;;;18.34;49.25;98246.75;4984432;28;20463;-71
2021/09/29 10:28:13;;;;;;;1.60;1.50;;;19.30;53.40;;;18.26;48.83;98240.69;4983081;28;20456;-73
2021/09/29 10:30:49;;;;;;;2.50;1.90;;;19.20;53.40;;;18.16;48.54;98239.78;4966747;28;20472;-72
2021/09/29 10:33:21;;;;;;;2.90;1.80;;;19.10;52.90;;;17.90;49.21;98247.69;4984725;28;20963;-73
2021/09/29 10:36:04;;;;;;;1.60;1.50;;;18.90;53.00;;;17.87;49.95;98245.47;4977546;28;20484;-72
2021/09/29 10:41:26;;;;;;;2.63;1.50;;;18.70;53.90;;;17.66;50.31;98247.97;4975228;28;20456;-72
2021/09/29 10:44:03;;;;;;;3.07;2.03;;;18.70;53.90;;;17.95;50.98;98248.56;4964472;28;20444;-72
2021/09/29 10:46:40;;;;;;;3.37;2.03;;;18.70;54.30;;;17.88;51.28;98252.59;4978953;28;20456;-73
2021/09/29 10:49:27;;;;;;;4.20;1.93;;;18.80;54.20;;;18.17;51.36;98253.16;4985550;28;20475;-72
2021/09/29 10:52:17;;;;;;;3.10;1.50;;;18.90;54.70;;;17.83;52.21;98254.19;4977774;28;20486;-72
2021/09/29 11:09:33;;;;;;;3.30;2.20;;;18.20;54.80;;;16.93;54.27;98236.16;4924548;29;20553;-75